< < Back
Terminal Aerodrome Forecast


Current Version              Previous Versions:   1  2  3  4  5  6  7  8  9  

Terminal Aerodrome Forecast

825
FTUS42 KGSP 010500
TAFGSP
TAF
KGSP 010535Z 0106/0206 22003KT P6SM BKN250
     FM011000 00000KT 5SM BR SCT250
     FM011300 24003KT P6SM SCT250
     FM011600 24006KT P6SM SCT060
     FM012100 21003KT P6SM BKN060
     FM020100 22003KT P6SM SCT060=



Latest METAR

092
SAUS70 KWBC 011900 RRK
MTRGSP
METAR KGSP 011853Z 21006KT 10SM CLR 33/21 A3010 RMK AO2 SLP178
T03280206


USA.gov is the U.S. government's official web portal to all federal, state and local government web resources and services.